Time;durP1;ratioP1;P1;durP2;ratioP2;P2;SDS_P1;SDS_P2;PMS_P1;PMS_P2;Temp;Humidity;BMP_temperature;BMP_pressure;BME280_temperature;BME280_humidity;BME280_pressure;Samples;Min_cycle;Max_cycle;Signal;HPM_P1;HPM_P2
2023/03/11 00:00:40;;;;;;;2.70;1.00;;;4.40;99.90;;;;;;4994392;28;20052;-72
2023/03/11 00:03:08;;;;;;;1.00;0.80;;;4.30;99.90;;;;;;4993848;28;20113;-73
2023/03/11 00:05:36;;;;;;;3.50;0.70;;;4.30;99.90;;;;;;4976367;28;20304;-71
2023/03/11 00:08:03;;;;;;;1.83;0.80;;;4.30;99.90;;;;;;4975558;28;20091;-72
2023/03/11 00:10:34;;;;;;;4.70;0.90;;;4.30;99.90;;;;;;4966082;28;20118;-72
2023/03/11 00:13:00;;;;;;;5.88;0.88;;;4.20;99.90;;;;;;4956713;28;20054;-74
2023/03/11 00:15:27;;;;;;;1.23;0.77;;;4.20;99.90;;;;;;4957151;28;20459;-74
2023/03/11 00:17:53;;;;;;;1.20;0.70;;;4.10;99.90;;;;;;4957078;28;20030;-80
2023/03/11 00:20:29;;;;;;;2.57;0.80;;;4.00;99.90;;;;;;4957420;28;20081;-75
2023/03/11 00:22:55;;;;;;;1.53;0.70;;;4.10;99.90;;;;;;4956768;28;20552;-77
2023/03/11 00:25:22;;;;;;;2.87;0.80;;;4.10;99.90;;;;;;4956963;28;20030;-76
2023/03/11 00:27:48;;;;;;;2.17;0.70;;;4.10;99.90;;;;;;4956917;28;20479;-74
2023/03/11 00:30:15;;;;;;;2.70;0.87;;;4.10;99.90;;;;;;4974026;28;20110;-76
2023/03/11 00:32:41;;;;;;;2.33;0.60;;;4.10;99.90;;;;;;4968042;28;20034;-75
2023/03/11 00:35:10;;;;;;;2.40;0.60;;;4.10;99.90;;;;;;4993111;28;20081;-76
2023/03/11 00:37:35;;;;;;;1.47;0.77;;;4.10;99.90;;;;;;4993962;28;20026;-77
2023/03/11 00:40:01;;;;;;;2.40;0.70;;;4.00;99.90;;;;;;4993484;28;20030;-75
2023/03/11 00:42:27;;;;;;;1.57;0.70;;;4.00;99.90;;;;;;4982443;28;20070;-74
2023/03/11 00:44:52;;;;;;;1.20;0.60;;;3.90;99.90;;;;;;4987301;28;20022;-75
2023/03/11 00:47:18;;;;;;;2.87;0.70;;;3.90;99.90;;;;;;4979195;28;20058;-75
2023/03/11 00:49:44;;;;;;;1.57;0.60;;;3.90;99.90;;;;;;4968028;28;20023;-78
2023/03/11 00:52:10;;;;;;;2.73;1.00;;;3.90;99.90;;;;;;4958894;28;20031;-76
2023/03/11 00:54:35;;;;;;;1.30;0.57;;;3.80;99.90;;;;;;4961564;28;20033;-76
2023/03/11 00:57:01;;;;;;;1.90;0.50;;;3.80;99.90;;;;;;4982647;28;20129;-76
2023/03/11 00:59:27;;;;;;;0.47;0.40;;;3.80;99.90;;;;;;4961930;28;20038;-76
2023/03/11 01:01:53;;;;;;;0.60;0.50;;;3.70;99.90;;;;;;4993317;28;20030;-75
2023/03/11 01:04:18;;;;;;;3.03;0.70;;;3.70;99.90;;;;;;4985765;28;20027;-75
2023/03/11 01:06:44;;;;;;;1.23;0.70;;;3.60;99.90;;;;;;4984755;28;20034;-76
2023/03/11 01:09:09;;;;;;;2.60;0.70;;;3.60;99.90;;;;;;4962816;28;20480;-77
2023/03/11 01:11:35;;;;;;;1.70;0.63;;;3.60;99.90;;;;;;4963288;28;20034;-75
2023/03/11 01:14:01;;;;;;;0.90;0.50;;;3.50;99.90;;;;;;4995107;28;20031;-75
2023/03/11 01:16:26;;;;;;;1.80;0.73;;;3.50;99.90;;;;;;4985199;28;20107;-75
2023/03/11 01:18:52;;;;;;;2.30;0.60;;;3.50;99.90;;;;;;4976105;28;20031;-75
2023/03/11 01:21:17;;;;;;;1.23;0.60;;;3.50;99.90;;;;;;4978076;28;20031;-76
2023/03/11 01:23:43;;;;;;;1.07;0.47;;;3.60;99.90;;;;;;4960805;28;20077;-76
2023/03/11 01:26:09;;;;;;;1.33;0.53;;;3.50;99.90;;;;;;4959604;28;20420;-75
2023/03/11 01:28:34;;;;;;;1.80;0.70;;;3.50;99.90;;;;;;4987397;28;20030;-78
2023/03/11 01:31:00;;;;;;;1.33;0.73;;;3.50;99.90;;;;;;4964273;28;20030;-79
2023/03/11 01:33:25;;;;;;;2.10;0.57;;;3.50;99.90;;;;;;4962943;28;20026;-76
2023/03/11 01:35:51;;;;;;;1.40;0.63;;;3.50;99.90;;;;;;4979301;28;20509;-77
2023/03/11 01:38:17;;;;;;;4.77;0.60;;;3.50;99.90;;;;;;4956616;28;20130;-77
2023/03/11 01:40:45;;;;;;;1.70;0.50;;;3.40;99.90;;;;;;4956325;28;20118;-77
2023/03/11 01:43:38;;;;;;;1.07;0.53;;;3.40;99.90;;;;;;4980673;28;20030;-78
2023/03/11 01:46:17;;;;;;;2.37;0.70;;;3.40;99.90;;;;;;4992929;28;20105;-78
2023/03/11 01:49:05;;;;;;;4.43;0.73;;;3.40;99.90;;;;;;4975572;28;20027;-77
2023/03/11 01:51:38;;;;;;;1.20;0.60;;;3.30;99.90;;;;;;4979858;28;20026;-77
2023/03/11 01:54:09;;;;;;;0.80;0.40;;;3.30;99.90;;;;;;4978732;28;20026;-78
2023/03/11 01:56:37;;;;;;;1.43;0.60;;;3.20;99.90;;;;;;4988640;28;20100;-77
2023/03/11 01:59:03;;;;;;;2.97;0.63;;;3.20;99.90;;;;;;4988414;28;20033;-77
2023/03/11 02:01:29;;;;;;;2.40;0.70;;;3.20;99.90;;;;;;4976556;28;20126;-76
2023/03/11 02:03:56;;;;;;;3.33;0.67;;;3.20;99.90;;;;;;4977265;28;20087;-76
2023/03/11 02:06:24;;;;;;;0.83;0.50;;;3.20;99.90;;;;;;4976756;28;20022;-76
2023/03/11 02:08:50;;;;;;;1.37;0.60;;;3.20;99.90;;;;;;4976834;28;20081;-75
2023/03/11 02:11:21;;;;;;;2.33;0.50;;;3.20;99.90;;;;;;4975311;28;20522;-75
2023/03/11 02:13:48;;;;;;;0.55;0.50;;;3.10;99.90;;;;;;4976033;28;20105;-75
2023/03/11 02:16:14;;;;;;;3.30;0.50;;;3.10;99.90;;;;;;4975073;28;20039;-75
2023/03/11 02:18:42;;;;;;;0.97;0.50;;;3.10;99.90;;;;;;4975497;28;20055;-75
2023/03/11 02:21:29;;;;;;;0.70;0.50;;;3.10;99.90;;;;;;4975208;28;20038;-75
2023/03/11 02:24:06;;;;;;;3.50;0.73;;;3.00;99.90;;;;;;4975613;28;20069;-74
2023/03/11 02:26:58;;;;;;;1.50;0.50;;;3.00;99.90;;;;;;4976796;28;20468;-75
2023/03/11 02:29:26;;;;;;;2.25;0.43;;;3.00;99.90;;;;;;4973928;28;20030;-75
2023/03/11 02:31:53;;;;;;;2.83;0.60;;;3.00;99.90;;;;;;4990333;28;20380;-75
2023/03/11 02:34:32;;;;;;;1.43;0.53;;;2.90;99.90;;;;;;4995522;28;20030;-76
2023/03/11 02:36:59;;;;;;;1.87;0.57;;;3.00;99.90;;;;;;4994932;28;20041;-74
2023/03/11 02:39:34;;;;;;;0.80;0.50;;;3.00;99.90;;;;;;4994397;28;20033;-75
2023/03/11 02:42:03;;;;;;;1.90;0.43;;;3.00;99.90;;;;;;4994912;28;20416;-74
2023/03/11 02:44:29;;;;;;;1.33;0.50;;;2.90;99.90;;;;;;4995054;28;20040;-73
2023/03/11 02:46:55;;;;;;;2.03;0.63;;;3.00;99.90;;;;;;5011205;28;20464;-75
2023/03/11 02:49:21;;;;;;;3.30;0.70;;;3.00;99.90;;;;;;4994243;28;20022;-75
2023/03/11 02:51:47;;;;;;;0.87;0.40;;;3.00;99.90;;;;;;4994731;28;20026;-75
2023/03/11 02:54:12;;;;;;;2.20;0.50;;;2.90;99.90;;;;;;4995177;28;20069;-75
2023/03/11 02:56:38;;;;;;;3.90;0.60;;;2.90;99.90;;;;;;4995748;28;20424;-75
2023/03/11 02:59:04;;;;;;;2.43;0.50;;;2.90;99.90;;;;;;4994452;28;20031;-77
2023/03/11 03:01:30;;;;;;;3.70;0.87;;;2.90;99.90;;;;;;4994400;28;20045;-74
2023/03/11 03:03:56;;;;;;;1.30;0.70;;;2.90;99.90;;;;;;4978257;28;20037;-74
2023/03/11 03:06:22;;;;;;;3.43;0.70;;;2.80;99.90;;;;;;4977916;28;20101;-74
2023/03/11 03:08:48;;;;;;;2.30;0.50;;;2.80;99.90;;;;;;4994329;28;20467;-74
2023/03/11 03:11:13;;;;;;;1.90;0.63;;;2.90;99.90;;;;;;4994045;28;20026;-75
2023/03/11 03:13:39;;;;;;;2.70;0.50;;;2.80;99.90;;;;;;4994445;28;20030;-74
2023/03/11 03:16:05;;;;;;;2.07;0.67;;;2.80;99.90;;;;;;4977742;28;20383;-76
2023/03/11 03:18:30;;;;;;;4.53;1.50;;;2.80;99.90;;;;;;4994761;28;20103;-74
2023/03/11 03:20:56;;;;;;;1.57;0.70;;;2.70;99.90;;;;;;4995250;28;20376;-75
2023/03/11 03:23:22;;;;;;;4.33;0.70;;;2.60;99.90;;;;;;4993740;28;20046;-75
2023/03/11 03:25:47;;;;;;;1.60;0.60;;;2.70;99.90;;;;;;4977495;28;20121;-75
2023/03/11 03:28:13;;;;;;;1.73;0.60;;;2.60;99.90;;;;;;4994591;28;20031;-75
2023/03/11 03:30:39;;;;;;;4.70;0.50;;;2.60;99.90;;;;;;4994341;28;20026;-74
2023/03/11 03:33:06;;;;;;;1.87;0.50;;;2.60;99.90;;;;;;4995150;28;20081;-79
2023/03/11 03:35:32;;;;;;;2.57;0.60;;;2.70;99.90;;;;;;4987525;28;20471;-75
2023/03/11 03:37:58;;;;;;;1.37;0.50;;;2.70;99.90;;;;;;4994946;28;20031;-75
2023/03/11 03:40:24;;;;;;;0.87;0.50;;;2.70;99.90;;;;;;4977323;28;20031;-75
2023/03/11 03:42:50;;;;;;;3.13;0.70;;;2.70;99.90;;;;;;4994848;28;20057;-75
2023/03/11 03:45:16;;;;;;;2.43;0.70;;;2.60;99.90;;;;;;4994533;28;20031;-75
2023/03/11 03:47:41;;;;;;;4.47;0.53;;;2.70;99.90;;;;;;4977138;28;20038;-74
2023/03/11 03:50:09;;;;;;;4.83;0.63;;;2.70;99.90;;;;;;4977283;28;20027;-79
2023/03/11 03:52:36;;;;;;;2.50;0.90;;;2.60;99.90;;;;;;4977435;28;20027;-75
2023/03/11 03:55:02;;;;;;;1.93;0.70;;;2.60;99.90;;;;;;4977205;28;20490;-75
2023/03/11 03:57:28;;;;;;;2.07;0.60;;;2.60;99.90;;;;;;4976715;28;20038;-75
2023/03/11 03:59:54;;;;;;;2.63;0.60;;;2.60;99.90;;;;;;4977328;28;20041;-75
2023/03/11 04:02:19;;;;;;;5.30;0.60;;;2.50;99.90;;;;;;4976576;28;20480;-76
2023/03/11 04:04:45;;;;;;;2.93;0.87;;;2.50;99.90;;;;;;4977224;28;20061;-75
2023/03/11 04:07:11;;;;;;;2.90;0.80;;;2.40;99.90;;;;;;4993971;28;20523;-75
2023/03/11 04:09:39;;;;;;;3.87;0.70;;;2.40;99.90;;;;;;4977217;28;20026;-73
2023/03/11 04:12:05;;;;;;;3.90;0.50;;;2.40;99.90;;;;;;4976688;28;20077;-75
2023/03/11 04:14:31;;;;;;;1.63;0.70;;;2.40;99.90;;;;;;4994089;28;20090;-75
2023/03/11 04:16:57;;;;;;;3.10;0.90;;;2.40;99.90;;;;;;4994066;28;20469;-75
2023/03/11 04:19:23;;;;;;;2.47;0.70;;;2.30;99.90;;;;;;4975889;28;20034;-75
2023/03/11 04:21:50;;;;;;;3.03;0.70;;;2.30;99.90;;;;;;4976725;28;20121;-75
2023/03/11 04:24:17;;;;;;;3.37;1.00;;;2.30;99.90;;;;;;4976299;28;20030;-76
2023/03/11 04:26:42;;;;;;;2.30;0.87;;;2.30;99.90;;;;;;4976444;28;20084;-76
2023/03/11 04:29:08;;;;;;;1.63;0.90;;;2.30;99.90;;;;;;4994174;28;20034;-79
2023/03/11 04:31:34;;;;;;;3.03;1.07;;;2.30;99.90;;;;;;4976417;28;20022;-75
2023/03/11 04:33:59;;;;;;;2.67;0.90;;;2.30;99.90;;;;;;4993821;28;20106;-75
2023/03/11 04:36:25;;;;;;;2.27;0.60;;;2.30;99.90;;;;;;4976344;28;20141;-75
2023/03/11 04:38:50;;;;;;;3.67;0.77;;;2.30;99.90;;;;;;4976497;28;20026;-75
2023/03/11 04:41:16;;;;;;;5.90;0.63;;;2.30;99.90;;;;;;4975801;28;20026;-76
2023/03/11 04:43:42;;;;;;;3.10;1.20;;;2.30;99.90;;;;;;4976591;28;20479;-76
2023/03/11 04:46:07;;;;;;;3.70;1.00;;;2.20;99.90;;;;;;4993551;28;20038;-75
2023/03/11 04:48:33;;;;;;;4.23;0.80;;;2.20;99.90;;;;;;4975714;28;20411;-75
2023/03/11 04:50:58;;;;;;;1.67;0.80;;;2.20;99.90;;;;;;4994019;28;20097;-75
2023/03/11 04:53:24;;;;;;;2.07;0.60;;;2.20;99.90;;;;;;4972436;28;20033;-79
2023/03/11 04:55:51;;;;;;;3.90;0.90;;;2.10;99.90;;;;;;4967463;28;20437;-76
2023/03/11 04:58:16;;;;;;;4.33;0.70;;;2.10;99.90;;;;;;4987790;28;20030;-75
2023/03/11 05:00:42;;;;;;;3.97;0.77;;;2.10;99.90;;;;;;4981701;28;20034;-75
2023/03/11 05:03:07;;;;;;;3.03;0.80;;;2.20;99.90;;;;;;4992911;28;20402;-75
2023/03/11 05:05:34;;;;;;;4.10;0.80;;;2.20;99.90;;;;;;4981061;28;20041;-75
2023/03/11 05:07:59;;;;;;;1.97;0.57;;;2.10;99.90;;;;;;5005988;28;20375;-75
2023/03/11 05:10:25;;;;;;;4.33;0.50;;;2.10;99.90;;;;;;4989637;28;20031;-75
2023/03/11 05:12:51;;;;;;;0.90;0.60;;;2.10;99.90;;;;;;5008297;28;20419;-75
2023/03/11 05:15:17;;;;;;;2.30;1.00;;;2.10;99.90;;;;;;4981614;28;20505;-75
2023/03/11 05:17:43;;;;;;;6.43;0.73;;;2.10;99.90;;;;;;4993552;28;20030;-76
2023/03/11 05:20:09;;;;;;;1.50;0.70;;;2.10;99.90;;;;;;4993393;28;20030;-76
2023/03/11 05:22:35;;;;;;;2.37;0.90;;;2.10;99.90;;;;;;4993211;28;20042;-76
2023/03/11 05:25:01;;;;;;;4.93;0.77;;;2.10;99.90;;;;;;5008631;28;20033;-75
2023/03/11 05:27:27;;;;;;;2.80;1.33;;;2.10;99.90;;;;;;4985342;28;20026;-75
2023/03/11 05:29:52;;;;;;;4.27;0.80;;;2.00;99.90;;;;;;4995692;28;20456;-75
2023/03/11 05:32:18;;;;;;;2.30;0.60;;;2.00;99.90;;;;;;4983208;28;20058;-75
2023/03/11 05:34:44;;;;;;;5.30;0.77;;;2.00;99.90;;;;;;4987101;28;20042;-75
2023/03/11 05:37:10;;;;;;;2.47;0.77;;;2.00;99.90;;;;;;4996155;28;20978;-76
2023/03/11 05:39:36;;;;;;;3.17;0.63;;;1.90;99.90;;;;;;4990727;28;20031;-75
2023/03/11 05:42:03;;;;;;;2.60;0.67;;;1.90;99.90;;;;;;4976163;28;20379;-74
2023/03/11 05:44:29;;;;;;;1.60;0.80;;;1.90;99.90;;;;;;4993327;28;20520;-75
2023/03/11 05:46:55;;;;;;;3.43;0.73;;;1.90;99.90;;;;;;4984246;28;20093;-77
2023/03/11 05:49:20;;;;;;;5.23;0.90;;;1.80;99.90;;;;;;4982060;28;20030;-76
2023/03/11 05:51:47;;;;;;;3.50;0.80;;;1.80;99.90;;;;;;4995292;28;20109;-75
2023/03/11 05:54:13;;;;;;;2.57;0.73;;;1.70;99.90;;;;;;4985274;28;20077;-79
2023/03/11 05:56:40;;;;;;;4.97;0.90;;;1.70;99.90;;;;;;4988552;28;20424;-74
2023/03/11 05:59:07;;;;;;;4.13;0.90;;;1.70;99.90;;;;;;4990516;28;20086;-76
2023/03/11 06:01:33;;;;;;;2.57;0.90;;;1.60;99.90;;;;;;4985088;28;20022;-75
2023/03/11 06:03:59;;;;;;;3.07;0.80;;;1.60;99.90;;;;;;4988351;28;20103;-75
2023/03/11 06:06:25;;;;;;;4.73;0.90;;;1.70;99.90;;;;;;4992253;28;20043;-75
2023/03/11 06:08:51;;;;;;;4.13;1.00;;;1.60;99.90;;;;;;4994907;28;20081;-75
2023/03/11 06:11:17;;;;;;;2.43;0.87;;;1.60;99.90;;;;;;4994715;28;20030;-76
2023/03/11 06:13:42;;;;;;;1.30;0.60;;;1.60;99.90;;;;;;4989556;28;20022;-77
2023/03/11 06:16:08;;;;;;;3.73;0.90;;;1.70;99.90;;;;;;4995177;28;20039;-75
2023/03/11 06:18:34;;;;;;;2.53;0.90;;;1.80;99.90;;;;;;5010855;28;20478;-75
2023/03/11 06:21:01;;;;;;;4.60;1.10;;;1.80;99.90;;;;;;4998268;28;20041;-75
2023/03/11 06:23:27;;;;;;;2.97;0.90;;;1.80;99.90;;;;;;4995394;28;20073;-76
2023/03/11 06:25:59;;;;;;;1.80;0.93;;;1.80;99.90;;;;;;4984899;28;20037;-76
2023/03/11 06:28:26;;;;;;;6.53;1.23;;;1.80;99.90;;;;;;4994736;28;20026;-76
2023/03/11 06:30:55;;;;;;;3.47;0.90;;;1.80;99.90;;;;;;4996377;28;20033;-76
2023/03/11 06:33:22;;;;;;;4.07;1.17;;;1.90;99.90;;;;;;4994974;28;20022;-77
2023/03/11 06:35:56;;;;;;;3.53;1.00;;;1.80;99.90;;;;;;4994530;28;20125;-74
2023/03/11 06:38:21;;;;;;;5.07;1.30;;;1.80;99.90;;;;;;4994635;28;20034;-76
2023/03/11 06:40:47;;;;;;;4.17;1.33;;;1.80;99.90;;;;;;4994588;28;20169;-75
2023/03/11 06:43:13;;;;;;;3.00;1.20;;;1.80;99.90;;;;;;4996161;28;20038;-76
2023/03/11 06:45:38;;;;;;;4.40;0.90;;;1.80;99.90;;;;;;4995438;28;20023;-76
2023/03/11 06:48:04;;;;;;;3.80;1.00;;;1.80;99.90;;;;;;4995678;28;20027;-75
2023/03/11 06:50:30;;;;;;;4.30;0.90;;;1.80;99.90;;;;;;4994262;28;20030;-75
2023/03/11 06:52:56;;;;;;;4.13;1.00;;;1.80;99.90;;;;;;4995547;28;20081;-74
2023/03/11 06:55:21;;;;;;;6.03;1.40;;;1.80;99.90;;;;;;4994927;28;20031;-77
2023/03/11 06:57:47;;;;;;;3.67;1.37;;;1.80;99.90;;;;;;4975209;28;20460;-76
2023/03/11 07:00:14;;;;;;;6.80;2.40;;;1.90;99.90;;;;;;4965377;28;20081;-76
2023/03/11 07:02:39;;;;;;;3.67;1.10;;;1.90;99.90;;;;;;4978152;28;20099;-76
2023/03/11 07:05:06;;;;;;;2.80;0.90;;;1.90;99.90;;;;;;4977960;28;20060;-76
2023/03/11 07:07:31;;;;;;;3.13;1.07;;;1.90;99.90;;;;;;4977210;28;20369;-75
2023/03/11 07:09:57;;;;;;;3.63;1.10;;;1.90;99.90;;;;;;4995337;28;20122;-75
2023/03/11 07:12:24;;;;;;;4.47;0.90;;;1.90;99.90;;;;;;4970065;28;20065;-75
2023/03/11 07:14:57;;;;;;;2.33;0.93;;;2.00;99.90;;;;;;4986673;28;20407;-75
2023/03/11 07:17:23;;;;;;;3.13;1.10;;;2.00;99.90;;;;;;4977577;28;20030;-76
2023/03/11 07:19:49;;;;;;;2.20;0.83;;;2.00;99.90;;;;;;4991962;28;20031;-75
2023/03/11 07:22:15;;;;;;;6.23;1.00;;;2.00;99.90;;;;;;4977821;28;20030;-75
2023/03/11 07:24:43;;;;;;;5.13;0.90;;;2.10;99.90;;;;;;4994398;28;20050;-76
2023/03/11 07:27:09;;;;;;;5.43;1.03;;;2.10;99.90;;;;;;4977561;28;20411;-75
2023/03/11 07:29:34;;;;;;;3.13;1.03;;;2.10;99.90;;;;;;4974012;28;20036;-75
2023/03/11 07:32:00;;;;;;;2.70;0.90;;;2.20;99.90;;;;;;4994627;28;20487;-74
2023/03/11 07:34:25;;;;;;;3.17;1.17;;;2.20;99.90;;;;;;4994444;28;20037;-77
2023/03/11 07:36:51;;;;;;;3.33;0.90;;;2.20;99.90;;;;;;4977588;28;20030;-76
2023/03/11 07:39:17;;;;;;;2.93;1.13;;;2.30;99.90;;;;;;4977195;28;20424;-79
2023/03/11 07:41:43;;;;;;;4.13;1.20;;;2.30;99.90;;;;;;4963028;28;20039;-76
2023/03/11 07:44:13;;;;;;;4.17;0.90;;;2.40;99.90;;;;;;4961748;28;20034;-76
2023/03/11 07:46:39;;;;;;;7.80;1.20;;;2.40;99.90;;;;;;4976732;28;20556;-76
2023/03/11 07:49:05;;;;;;;3.03;0.90;;;2.50;99.90;;;;;;4971635;28;20022;-75
2023/03/11 07:51:33;;;;;;;4.33;0.90;;;2.50;99.90;;;;;;4971113;28;20040;-74
2023/03/11 07:53:59;;;;;;;5.07;1.00;;;2.50;99.90;;;;;;4994372;28;20089;-76
2023/03/11 07:56:28;;;;;;;3.23;0.90;;;2.50;99.90;;;;;;4984213;28;20042;-76
2023/03/11 07:58:54;;;;;;;5.43;1.00;;;2.40;99.90;;;;;;4985403;28;20428;-75
2023/03/11 08:01:22;;;;;;;2.00;0.77;;;2.50;99.90;;;;;;4985702;28;20065;-78
2023/03/11 08:03:51;;;;;;;1.70;0.77;;;2.40;99.90;;;;;;4992921;28;20080;-76
2023/03/11 08:06:20;;;;;;;6.87;1.20;;;2.40;99.90;;;;;;4989812;28;20084;-75
2023/03/11 08:08:46;;;;;;;2.17;0.97;;;2.50;99.90;;;;;;4992115;28;20038;-76
2023/03/11 08:11:13;;;;;;;4.87;1.03;;;2.60;99.90;;;;;;4992139;28;20164;-74
2023/03/11 08:13:39;;;;;;;4.30;0.83;;;2.60;99.90;;;;;;4991959;28;20038;-75
2023/03/11 08:16:07;;;;;;;3.03;0.80;;;2.50;99.90;;;;;;4981190;28;20181;-74
2023/03/11 08:18:33;;;;;;;7.50;1.00;;;2.50;99.90;;;;;;4992556;28;20034;-75
2023/03/11 08:21:04;;;;;;;3.67;1.43;;;2.60;99.90;;;;;;4992757;28;20037;-77
2023/03/11 08:23:29;;;;;;;4.50;0.90;;;2.60;99.90;;;;;;4990118;28;20586;-75
2023/03/11 08:25:55;;;;;;;4.87;0.90;;;2.60;99.90;;;;;;4978423;28;20052;-75
2023/03/11 08:28:21;;;;;;;3.30;0.70;;;2.70;99.90;;;;;;4978928;28;20045;-82
2023/03/11 08:30:46;;;;;;;3.93;1.00;;;2.70;99.90;;;;;;4983235;28;20026;-76
2023/03/11 08:33:12;;;;;;;6.53;1.53;;;2.80;99.90;;;;;;4978329;28;20396;-77
2023/03/11 08:35:38;;;;;;;3.53;1.13;;;2.80;99.90;;;;;;4986423;28;20041;-77
2023/03/11 08:38:03;;;;;;;3.20;1.53;;;2.90;99.90;;;;;;4992177;28;20041;-77
2023/03/11 08:40:29;;;;;;;9.47;3.93;;;2.90;99.90;;;;;;4993439;28;20474;-77
2023/03/11 08:42:55;;;;;;;11.17;3.10;;;3.00;99.90;;;;;;4991519;28;20026;-76
2023/03/11 08:45:21;;;;;;;1.73;1.17;;;3.00;99.90;;;;;;4982655;28;20030;-79
2023/03/11 08:47:46;;;;;;;2.37;1.10;;;3.10;99.90;;;;;;4990573;28;20169;-75
2023/03/11 08:50:15;;;;;;;6.87;1.40;;;3.10;99.90;;;;;;4985583;28;20030;-76
2023/03/11 08:52:41;;;;;;;2.50;1.10;;;3.10;99.90;;;;;;4991487;28;20023;-75
2023/03/11 08:55:10;;;;;;;3.10;1.33;;;3.20;99.90;;;;;;4990986;28;20034;-76
2023/03/11 08:57:37;;;;;;;5.57;1.30;;;3.30;99.90;;;;;;4990861;28;20039;-76
2023/03/11 09:00:03;;;;;;;5.20;1.13;;;3.40;99.90;;;;;;4970214;28;20030;-76
2023/03/11 09:02:29;;;;;;;4.20;1.23;;;3.50;99.90;;;;;;4963429;28;20081;-78
2023/03/11 09:04:55;;;;;;;4.73;1.10;;;3.60;99.90;;;;;;4976581;28;20030;-77
2023/03/11 09:07:21;;;;;;;6.23;1.00;;;3.60;99.90;;;;;;4993201;28;20065;-78
2023/03/11 09:09:47;;;;;;;4.70;0.80;;;3.60;99.90;;;;;;4971474;28;20022;-74
2023/03/11 09:12:13;;;;;;;4.57;1.17;;;3.60;99.90;;;;;;4964684;28;20034;-75
2023/03/11 09:14:42;;;;;;;5.93;0.97;;;3.80;99.90;;;;;;4985766;28;20027;-74
2023/03/11 09:17:10;;;;;;;4.50;0.70;;;3.80;99.90;;;;;;4987306;28;20487;-78
2023/03/11 09:19:36;;;;;;;2.33;0.80;;;3.90;99.90;;;;;;4975325;28;20026;-75
2023/03/11 09:22:03;;;;;;;5.17;1.20;;;4.00;99.90;;;;;;4983136;28;20404;-77
2023/03/11 09:24:33;;;;;;;8.00;0.80;;;4.20;99.90;;;;;;4987016;28;20237;-76
2023/03/11 09:26:58;;;;;;;4.07;0.80;;;4.30;99.90;;;;;;4957024;28;20119;-77
2023/03/11 09:29:24;;;;;;;3.13;0.93;;;4.30;99.90;;;;;;4971718;28;20117;-75
2023/03/11 09:31:49;;;;;;;1.37;0.70;;;4.40;99.90;;;;;;4980304;28;20034;-75
2023/03/11 09:34:15;;;;;;;5.10;0.87;;;4.50;99.90;;;;;;4965164;28;20037;-76
2023/03/11 09:36:41;;;;;;;5.33;0.83;;;4.50;99.90;;;;;;4967742;28;20077;-75
2023/03/11 09:39:07;;;;;;;4.53;1.00;;;4.60;99.90;;;;;;4962499;28;20023;-74
2023/03/11 09:42:02;;;;;;;5.93;1.03;;;4.70;99.90;;;;;;4970233;28;20042;-74
2023/03/11 09:44:32;;;;;;;3.97;0.90;;;4.70;99.90;;;;;;4990951;28;20088;-78
2023/03/11 09:47:06;;;;;;;3.97;0.90;;;4.60;99.90;;;;;;4959403;28;20076;-76
2023/03/11 09:49:54;;;;;;;2.60;0.70;;;4.50;99.90;;;;;;4986450;28;20121;-76
2023/03/11 09:52:51;;;;;;;0.87;0.63;;;4.50;99.90;;;;;;4972028;28;20030;-76
2023/03/11 09:55:37;;;;;;;2.73;0.60;;;4.60;99.90;;;;;;4975288;28;20049;-75
2023/03/11 09:58:31;;;;;;;2.93;0.57;;;4.80;99.90;;;;;;4973627;28;20037;-75
2023/03/11 10:00:57;;;;;;;3.57;0.90;;;4.80;99.90;;;;;;4943776;28;20141;-75
2023/03/11 10:03:33;;;;;;;2.47;0.70;;;4.70;99.90;;;;;;4983560;28;20443;-83
2023/03/11 10:06:20;;;;;;;13.50;1.53;;;4.70;99.90;;;;;;4987038;28;20027;-75
2023/03/11 10:08:56;;;;;;;3.87;0.80;;;4.70;99.90;;;;;;4963516;28;20031;-76
2023/03/11 10:11:51;;;;;;;3.23;0.73;;;4.70;99.90;;;;;;4992022;28;20041;-84
2023/03/11 10:14:25;;;;;;;4.30;0.70;;;4.80;99.90;;;;;;4946942;28;20567;-76
2023/03/11 10:17:19;;;;;;;2.10;0.87;;;4.90;99.90;;;;;;4990882;28;20106;-76
2023/03/11 10:20:11;;;;;;;5.87;1.00;;;5.10;99.90;;;;;;4970243;28;20035;-74
2023/03/11 10:22:53;;;;;;;1.95;0.60;;;5.20;99.90;;;;;;4976571;28;20109;-78
2023/03/11 10:25:46;;;;;;;3.40;0.63;;;5.30;99.90;;;;;;4975969;28;20440;-82
2023/03/11 10:28:17;;;;;;;4.53;0.87;;;5.30;99.90;;;;;;4970705;28;20026;-76
2023/03/11 10:30:54;;;;;;;2.58;0.80;;;5.30;99.90;;;;;;4978181;28;20125;-75
2023/03/11 10:33:43;;;;;;;5.97;0.80;;;5.30;99.90;;;;;;4963321;28;20109;-85
2023/03/11 10:36:17;;;;;;;4.40;0.70;;;5.50;99.90;;;;;;4984195;28;20098;-76
2023/03/11 10:38:47;;;;;;;4.13;0.60;;;5.70;99.90;;;;;;4977932;28;20042;-77
2023/03/11 10:41:26;;;;;;;1.00;0.50;;;5.80;99.30;;;;;;4991990;28;20034;-76
2023/03/11 10:44:01;;;;;;;1.60;0.50;;;5.90;99.30;;;;;;4974382;28;20034;-75
2023/03/11 10:46:28;;;;;;;2.10;0.50;;;5.90;96.90;;;;;;4977010;28;20026;-77
2023/03/11 10:48:53;;;;;;;4.27;0.53;;;5.90;96.50;;;;;;4976199;28;20451;-77
2023/03/11 10:51:22;;;;;;;2.30;0.40;;;5.90;95.30;;;;;;4973228;28;20114;-79
2023/03/11 10:53:53;;;;;;;6.63;0.60;;;5.90;94.80;;;;;;4992827;28;20414;-77
2023/03/11 10:56:30;;;;;;;5.15;0.75;;;6.00;95.10;;;;;;4974026;28;20050;-80
2023/03/11 10:58:56;;;;;;;2.67;0.70;;;6.20;94.20;;;;;;4990483;28;20117;-76
2023/03/11 11:01:22;;;;;;;7.07;0.60;;;6.20;93.70;;;;;;4988352;28;20026;-78
2023/03/11 11:03:50;;;;;;;3.47;0.50;;;6.20;93.50;;;;;;4993791;28;20037;-75
2023/03/11 11:06:25;;;;;;;2.50;0.80;;;6.10;94.00;;;;;;4980405;28;20511;-75
2023/03/11 11:09:18;;;;;;;4.90;0.70;;;6.10;95.10;;;;;;4988690;28;20038;-76
2023/03/11 11:12:13;;;;;;;1.50;0.77;;;6.00;93.90;;;;;;4986505;28;20475;-77
2023/03/11 11:14:50;;;;;;;1.47;0.70;;;6.10;93.40;;;;;;4991014;28;20039;-76
2023/03/11 11:17:29;;;;;;;3.07;0.43;;;6.00;94.00;;;;;;4986996;28;20062;-77
2023/03/11 11:19:57;;;;;;;1.00;0.53;;;5.90;93.60;;;;;;4987956;28;20026;-76
2023/03/11 11:22:24;;;;;;;4.83;1.03;;;5.90;94.20;;;;;;4986160;28;20061;-75
2023/03/11 11:24:52;;;;;;;3.23;0.83;;;5.80;93.80;;;;;;4978023;28;20105;-76
2023/03/11 11:27:17;;;;;;;14.87;6.13;;;5.90;94.60;;;;;;4984071;28;20043;-77
2023/03/11 11:29:43;;;;;;;5.63;1.90;;;6.00;93.30;;;;;;4992759;28;20088;-78
2023/03/11 11:32:17;;;;;;;5.50;0.90;;;6.10;93.00;;;;;;4986163;28;20038;-76
2023/03/11 11:34:55;;;;;;;3.23;0.83;;;6.20;92.60;;;;;;4985946;28;20037;-76
2023/03/11 11:37:22;;;;;;;4.80;0.80;;;6.30;92.10;;;;;;4986322;28;20041;-77
2023/03/11 11:39:55;;;;;;;3.60;0.90;;;6.40;91.00;;;;;;4986568;28;20460;-76
2023/03/11 11:42:22;;;;;;;4.27;0.70;;;6.60;90.80;;;;;;4989242;28;20049;-78
2023/03/11 11:44:53;;;;;;;0.83;0.40;;;6.80;90.20;;;;;;4984497;28;20038;-75
2023/03/11 11:47:24;;;;;;;4.43;0.77;;;7.00;92.20;;;;;;4976733;28;20461;-82
2023/03/11 11:49:56;;;;;;;3.90;0.80;;;7.20;93.70;;;;;;4991398;28;20542;-76
2023/03/11 11:52:31;;;;;;;5.23;0.87;;;7.30;92.20;;;;;;4991966;28;20452;-76
2023/03/11 11:55:02;;;;;;;3.10;0.70;;;7.40;91.40;;;;;;4982214;28;20157;-79
2023/03/11 11:57:28;;;;;;;4.30;0.50;;;7.50;91.50;;;;;;4979483;28;20202;-79
2023/03/11 11:59:54;;;;;;;3.00;0.67;;;7.70;92.10;;;;;;4985022;28;20539;-79
2023/03/11 12:02:55;;;;;;;3.20;0.70;;;7.80;91.30;;;;;;4985983;28;20113;-81
2023/03/11 12:05:34;;;;;;;1.97;0.60;;;7.80;85.90;;;;;;4992767;28;20081;-80
2023/03/11 12:08:27;;;;;;;4.20;0.63;;;7.80;82.40;;;;;;4982523;28;20034;-79
2023/03/11 12:11:07;;;;;;;1.63;0.63;;;7.90;82.50;;;;;;4986498;28;20030;-79
2023/03/11 12:14:01;;;;;;;3.17;0.70;;;7.90;83.20;;;;;;4990642;28;20121;-79
2023/03/11 12:16:56;;;;;;;2.57;0.60;;;7.90;84.10;;;;;;4986957;28;20101;-77
2023/03/11 12:19:50;;;;;;;4.33;0.57;;;7.50;77.20;;;;;;4988822;28;20023;-76
2023/03/11 12:22:44;;;;;;;2.53;0.80;;;7.40;79.90;;;;;;4991371;28;20120;-78
2023/03/11 12:25:20;;;;;;;1.48;0.70;;;7.60;79.80;;;;;;4991090;28;20025;-78
2023/03/11 12:28:13;;;;;;;3.20;0.70;;;7.90;81.50;;;;;;4984489;28;20031;-77
2023/03/11 12:30:44;;;;;;;;;;;8.40;78.30;;;;;;4984150;28;20207;-77
2023/03/11 12:33:33;;;;;;;1.10;0.50;;;8.70;79.60;;;;;;4993734;28;19936;-78
2023/03/11 12:35:59;;;;;;;1.42;0.68;;;9.10;75.70;;;;;;4982682;28;20038;-77
2023/03/11 12:38:39;;;;;;;4.82;0.85;;;9.30;74.20;;;;;;4992514;28;20038;-78
2023/03/11 12:41:25;;;;;;;2.47;0.60;;;8.90;68.90;;;;;;4993358;28;20026;-77
2023/03/11 12:43:50;;;;;;;3.80;0.95;;;8.60;72.80;;;;;;4993852;28;20491;-77
2023/03/11 12:46:16;;;;;;;2.45;0.52;;;8.40;73.00;;;;;;4993027;28;20026;-77
2023/03/11 12:48:48;;;;;;;2.78;0.40;;;8.30;73.00;;;;;;4990510;28;20125;-77
2023/03/11 12:51:26;;;;;;;2.83;0.60;;;8.20;71.60;;;;;;4979558;28;20062;-77
2023/03/11 12:53:55;;;;;;;2.08;0.90;;;8.00;72.60;;;;;;4990552;28;20026;-77
2023/03/11 12:56:41;;;;;;;2.78;0.60;;;8.00;73.50;;;;;;4987138;28;20047;-78
2023/03/11 12:59:28;;;;;;;3.13;0.70;;;8.00;73.90;;;;;;4984791;28;20117;-79
2023/03/11 13:02:08;;;;;;;3.65;0.73;;;8.30;72.90;;;;;;4993345;28;20041;-78
2023/03/11 13:04:49;;;;;;;3.22;0.68;;;9.40;70.70;;;;;;4992958;28;20034;-79
2023/03/11 13:07:21;;;;;;;3.15;0.68;;;9.70;67.10;;;;;;4987438;28;20035;-77
2023/03/11 13:10:11;;;;;;;1.70;0.70;;;9.40;68.10;;;;;;4988859;28;20022;-78